Gillette, WY (82716)

10:23 AM MDT on July 23, 2016 (GMT -0600)
Gillette-Campbell County | | Change Station
Active Advisory: Fire Weather Warning

Elev 4364 ft 44.34 °N, 105.54 °W | Updated 30 minutes ago

Clear
Clear
74 °F
Feels Like 74 °F
N
16
Wind Variable Wind from North
Gusts 23 mph

Today
High -- | Low -- °F
--% Chance of Precip.
Yesterday
High -- | Low -- °F
Precip. -- in
Pressure 29.90 in
Visibility 10.0 miles
Clouds Clear
Dew Point 42 °F
Humidity 32%
Rainfall 0.00 in
Snow Depth Not available.
5:40 AM 8:37 PM
Waning Gibbous, 84% visible
METAR KGCC 231553Z AUTO 36014G20KT 10SM CLR 23/06 A3006 RMK AO2 SLP125 T02330056
Pressure 29.90 in
Visibility 10.0 miles
Clouds Clear
Dew Point 42 °F
Humidity 32%
Rainfall 0.00 in
Snow Depth Not available.
5:40 AM 8:37 PM
Waning Gibbous, 84% visible
METAR KGCC 231553Z AUTO 36014G20KT 10SM CLR 23/06 A3006 RMK AO2 SLP125 T02330056

10-Day Weather Forecast

Almanac

Astronomy

Jul. 23, 2016 Rise Set
Actual Time
Civil Twilight
Nautical Twilight
Astronomical Twilight
Moon
Length of Visible Light
Length of Day
Tomorrow will be .
, % of the Moon is Illuminated

Today's Extremes

State Highs State Lows

Community

WunderPhotos

Upload Photos

1,926,858 photos uploaded!

WunderBlog® & News

Nearby

Air Quality

  Air Quality AQ Index Pollutant
Not available.

Snow Depth

Station Depth Elevation

Earthquake Activity

City Distance Mag. Time & Date
Minimum magnitude displayed is 2.5.

Coastal Water Temperatures

Place Temperature

Stations

Nearby Weather Stations

Station Location Temp. Windchill Dew Point Humidity Wind Precip. Elev Updated Type
                   

Watches & Warnings

Fire Weather Warning
Issued: 4:57 AM MDT Jul. 23, 2016 – National Weather Service

... Red flag warning in effect from noon today to 9 PM MDT this
evening for gusty winds and low relative humidity for fire
weather zones 259... 260... 261... 262... 264... 297... 298 and 299...

The National Weather Service in Rapid City has issued a red flag
warning for gusty winds and low relative humidity... which is in
effect from noon today to 9 PM MDT this evening. The Fire Weather
Watch is no longer in effect.

* Affected area... fire weather zones 259... 260... 261... 262...
264... 297... 298 and 299.

* Winds... northwest 15 to 30 mph with gusts to 45 mph.

* Relative humidity... as low as 15 percent.

* Impacts... the combination of dry fuels... gusty winds... and low
relative humidity may create weather conditions favorable for
explosive fire growth.

Precautionary/preparedness actions...

A red flag warning means that critical fire weather conditions
are either occurring now... or will shortly. A combination of
strong winds... low relative humidity... and warm temperatures can
contribute to extreme fire behavior.